Time;durP1;ratioP1;P1;durP2;ratioP2;P2;SDS_P1;SDS_P2;PMS_P1;PMS_P2;Temp;Humidity;BMP_temperature;BMP_pressure;BME280_temperature;BME280_humidity;BME280_pressure;Samples;Min_cycle;Max_cycle;Signal;HPM_P1;HPM_P2
2022/06/23 00:01:26;;;;;;;;;;;;;;;22.58;78.44;96673.07;586941;241;65940;-73
2022/06/23 00:03:55;;;;;;;;;;;;;;;22.59;78.51;96680.04;586980;241;65117;-73
2022/06/23 00:06:33;;;;;;;;;;;;;;;22.59;78.72;96677.36;586963;241;66942;-73
2022/06/23 00:09:01;;;;;;;;;;;;;;;22.57;78.83;96682.20;586971;241;62822;-72
2022/06/23 00:11:29;;;;;;;;;;;;;;;22.57;78.75;96682.99;587013;241;64881;-72
2022/06/23 00:14:15;;;;;;;;;;;;;;;22.57;78.76;96679.52;586969;241;64815;-72
2022/06/23 00:16:44;;;;;;;;;;;;;;;22.57;78.80;96677.64;586980;241;64914;-72
2022/06/23 00:19:13;;;;;;;;;;;;;;;22.57;78.83;96674.17;587002;241;67174;-72
2022/06/23 00:21:42;;;;;;;;;;;;;;;22.57;78.76;96680.31;587000;241;64892;-72
2022/06/23 00:24:11;;;;;;;;;;;;;;;22.57;78.63;96674.17;587001;241;65151;-72
2022/06/23 00:26:39;;;;;;;;;;;;;;;22.58;78.68;96673.86;586849;241;64964;-68
2022/06/23 00:29:08;;;;;;;;;;;;;;;22.58;78.62;96687.25;587017;241;65720;-69
2022/06/23 00:31:37;;;;;;;;;;;;;;;22.59;78.64;96680.04;586894;241;63640;-72
2022/06/23 00:34:06;;;;;;;;;;;;;;;22.57;78.53;96671.48;587001;241;64723;-72
2022/06/23 00:36:36;;;;;;;;;;;;;;;22.58;78.56;96671.19;586323;241;67009;-72
2022/06/23 00:39:05;;;;;;;;;;;;;;;22.57;78.43;96674.17;587017;241;65872;-72
2022/06/23 00:41:34;;;;;;;;;;;;;;;22.57;78.45;96674.95;586136;241;67154;-72
2022/06/23 00:44:03;;;;;;;;;;;;;;;22.58;78.52;96665.83;586970;241;64683;-72
2022/06/23 00:46:48;;;;;;;;;;;;;;;22.58;78.57;96659.68;586972;241;62795;-72
2022/06/23 00:49:19;;;;;;;;;;;;;;;22.57;78.52;96668.81;586730;241;67131;-72
2022/06/23 00:51:48;;;;;;;;;;;;;;;22.57;78.54;96676.84;586767;241;67190;-72
2022/06/23 00:54:20;;;;;;;;;;;;;;;22.57;78.76;96687.56;584957;241;65234;-72
2022/06/23 00:57:04;;;;;;;;;;;;;;;22.57;78.88;96684.87;584241;241;64677;-72
2022/06/23 00:59:40;;;;;;;;;;;;;;;22.57;78.89;96687.56;584269;241;66767;-74
2022/06/23 01:02:12;;;;;;;;;;;;;;;22.55;79.00;96669.09;583243;243;62759;-73
2022/06/23 01:04:57;;;;;;;;;;;;;;;22.55;79.09;96660.27;584317;243;64928;-72
2022/06/23 01:07:33;;;;;;;;;;;;;;;22.55;79.00;96661.05;584280;243;66967;-71
2022/06/23 01:10:07;;;;;;;;;;;;;;;22.56;78.97;96672.56;584327;243;65091;-72
2022/06/23 01:12:42;;;;;;;;;;;;;;;22.56;78.92;96665.34;584177;243;64668;-72
2022/06/23 01:15:20;;;;;;;;;;;;;;;22.55;78.74;96669.09;584328;243;64802;-73
2022/06/23 01:17:49;;;;;;;;;;;;;;;22.55;78.83;96673.66;584201;241;65153;-72
2022/06/23 01:20:18;;;;;;;;;;;;;;;22.56;78.80;96667.20;584318;243;67369;-72
2022/06/23 01:22:53;;;;;;;;;;;;;;;22.55;78.79;96670.97;584202;243;66703;-73
2022/06/23 01:25:23;;;;;;;;;;;;;;;22.55;78.75;96666.41;584280;243;65988;-72
2022/06/23 01:27:55;;;;;;;;;;;;;;;22.56;78.75;96667.20;584316;243;66853;-72
2022/06/23 01:30:22;;;;;;;;;;;;;;;22.55;78.80;96674.45;583762;242;64794;-72
2022/06/23 01:32:54;;;;;;;;;;;;;;;22.55;78.80;96671.77;584301;243;62715;-72
2022/06/23 01:35:32;;;;;;;;;;;;;;;22.55;78.92;96668.30;584229;242;67048;-72
2022/06/23 01:38:02;;;;;;;;;;;;;;;22.56;78.89;96665.34;584269;239;64804;-72
2022/06/23 01:40:34;;;;;;;;;;;;;;;22.56;78.96;96664.52;583594;243;62891;-72
2022/06/23 01:43:03;;;;;;;;;;;;;;;22.56;78.93;96659.98;584014;243;67227;-72
2022/06/23 01:45:34;;;;;;;;;;;;;;;22.55;78.82;96657.58;584309;243;66944;-69
2022/06/23 01:48:03;;;;;;;;;;;;;;;22.55;78.76;96641.52;584315;243;62736;-69
2022/06/23 01:50:48;;;;;;;;;;;;;;;22.55;78.79;96631.59;584237;243;64935;-73
2022/06/23 01:53:17;;;;;;;;;;;;;;;22.55;78.98;96639.63;584241;242;66951;-71
2022/06/23 01:55:52;;;;;;;;;;;;;;;22.54;78.91;96635.38;584318;243;64998;-72
2022/06/23 01:58:21;;;;;;;;;;;;;;;22.55;79.07;96634.27;584273;239;65003;-73
2022/06/23 02:00:50;;;;;;;;;;;;;;;22.55;79.08;96636.16;584315;243;64593;-73
2022/06/23 02:03:22;;;;;;;;;;;;;;;22.55;79.14;96646.87;584310;243;65605;-73
2022/06/23 02:05:51;;;;;;;;;;;;;;;22.55;79.21;96638.84;583978;243;67161;-73
2022/06/23 02:08:37;;;;;;;;;;;;;;;22.54;79.24;96645.30;584306;243;67861;-73
2022/06/23 02:11:09;;;;;;;;;;;;;;;22.54;79.18;96639.94;584304;243;62690;-73
2022/06/23 02:13:38;;;;;;;;;;;;;;;22.55;79.15;96630.80;584309;243;67142;-72
2022/06/23 02:16:26;;;;;;;;;;;;;;;22.56;79.20;96632.39;584127;243;66869;-69
2022/06/23 02:18:55;;;;;;;;;;;;;;;22.54;79.25;96623.87;584325;243;62965;-68
2022/06/23 02:21:27;;;;;;;;;;;;;;;22.55;79.14;96628.12;584172;243;64936;-68
2022/06/23 02:23:59;;;;;;;;;;;;;;;22.54;79.02;96634.58;584238;243;70965;-69
2022/06/23 02:26:31;;;;;;;;;;;;;;;22.54;78.87;96638.05;584270;241;64923;-69
2022/06/23 02:29:00;;;;;;;;;;;;;;;22.54;78.94;96623.87;584304;243;66897;-68
2022/06/23 02:31:29;;;;;;;;;;;;;;;22.53;78.90;96628.41;584289;243;66953;-68
2022/06/23 02:33:58;;;;;;;;;;;;;;;22.55;78.97;96620.09;580400;243;65001;-69
2022/06/23 02:36:33;;;;;;;;;;;;;;;22.55;78.96;96622.77;584099;243;65173;-68
2022/06/23 02:39:03;;;;;;;;;;;;;;;22.54;79.01;96619.30;583564;242;64768;-69
2022/06/23 02:41:32;;;;;;;;;;;;;;;22.54;78.96;96613.16;584303;243;65072;-69
2022/06/23 02:44:01;;;;;;;;;;;;;;;22.54;79.12;96610.48;584299;243;67158;-68
2022/06/23 02:46:40;;;;;;;;;;;;;;;22.54;79.18;96613.95;584278;243;66895;-69
2022/06/23 02:49:25;;;;;;;;;;;;;;;22.53;79.21;96606.98;584301;243;64906;-68
2022/06/23 02:51:57;;;;;;;;;;;;;;;22.54;79.30;96615.84;584328;243;65828;-69
2022/06/23 02:54:43;;;;;;;;;;;;;;;22.54;79.22;96627.34;586412;241;64813;-68
2022/06/23 02:57:24;;;;;;;;;;;;;;;22.54;79.19;96626.55;587026;241;63095;-68
2022/06/23 02:59:53;;;;;;;;;;;;;;;22.53;79.25;96625.73;586874;241;64902;-68
2022/06/23 03:02:22;;;;;;;;;;;;;;;22.53;79.26;96616.90;586920;241;64962;-68
2022/06/23 03:05:03;;;;;;;;;;;;;;;22.53;79.25;96617.69;586254;241;62806;-73
2022/06/23 03:07:32;;;;;;;;;;;;;;;22.53;79.12;96625.73;587036;241;67097;-72
2022/06/23 03:10:01;;;;;;;;;;;;;;;22.54;79.09;96626.55;586919;241;66912;-72
2022/06/23 03:12:30;;;;;;;;;;;;;;;22.53;79.02;96628.41;586981;241;62717;-71
2022/06/23 03:15:05;;;;;;;;;;;;;;;22.53;79.05;96628.41;586835;241;67276;-74
2022/06/23 03:17:41;;;;;;;;;;;;;;;22.54;79.21;96634.58;587038;241;66783;-73
2022/06/23 03:20:13;;;;;;;;;;;;;;;22.54;79.14;96645.30;587014;241;64771;-73
2022/06/23 03:22:55;;;;;;;;;;;;;;;22.54;79.19;96645.30;586234;241;67099;-72
2022/06/23 03:25:24;;;;;;;;;;;;;;;22.54;79.14;96637.26;586929;241;67368;-74
2022/06/23 03:27:56;;;;;;;;;;;;;;;22.53;79.28;96646.36;587031;241;64928;-72
2022/06/23 03:30:24;;;;;;;;;;;;;;;22.54;79.19;96639.94;586901;241;67062;-72
2022/06/23 03:32:53;;;;;;;;;;;;;;;22.53;79.15;96639.11;586882;241;66957;-72
2022/06/23 03:35:22;;;;;;;;;;;;;;;22.53;79.22;96644.47;586984;241;62937;-72
2022/06/23 03:37:57;;;;;;;;;;;;;;;22.53;79.29;96639.11;587026;241;67133;-72
2022/06/23 03:43:13;;;;;;;;;;;;;;;22.53;79.35;96632.97;587063;241;62870;-72
2022/06/23 03:45:55;;;;;;;;;;;;;;;22.53;79.38;96627.61;586932;241;66609;-72
2022/06/23 03:48:30;;;;;;;;;;;;;;;22.53;79.37;96622.26;587048;241;66804;-73
2022/06/23 03:51:01;;;;;;;;;;;;;;;22.53;79.33;96624.94;587026;241;65365;-72
2022/06/23 03:53:30;;;;;;;;;;;;;;;22.53;79.28;96627.61;585814;241;64893;-72
2022/06/23 03:56:03;;;;;;;;;;;;;;;22.52;79.40;96623.36;584298;243;66748;-72
2022/06/23 03:58:32;;;;;;;;;;;;;;;22.52;79.39;96631.39;584156;243;65023;-72
2022/06/23 04:01:05;;;;;;;;;;;;;;;22.53;79.44;96632.97;584321;243;65489;-73
2022/06/23 04:03:34;;;;;;;;;;;;;;;22.53;79.35;96638.33;584309;243;64580;-73
2022/06/23 04:06:18;;;;;;;;;;;;;;;22.53;79.40;96638.33;584300;243;63678;-73
2022/06/23 04:08:47;;;;;;;;;;;;;;;22.53;79.50;96632.97;584315;243;64991;-72
2022/06/23 04:14:03;;;;;;;;;;;;;;;22.52;79.43;96642.09;584299;243;65147;-74
2022/06/23 04:16:32;;;;;;;;;;;;;;;22.52;79.49;96631.39;584280;243;65165;-74
2022/06/23 04:19:01;;;;;;;;;;;;;;;22.52;79.50;96629.50;584229;243;67114;-71
2022/06/23 04:21:29;;;;;;;;;;;;;;;22.52;79.50;96629.50;584245;241;65037;-72
2022/06/23 04:23:58;;;;;;;;;;;;;;;22.52;79.48;96631.39;584279;243;67059;-72
2022/06/23 04:26:27;;;;;;;;;;;;;;;22.52;79.48;96637.53;584335;243;66745;-71
2022/06/23 04:28:56;;;;;;;;;;;;;;;22.53;79.38;96643.68;584327;243;65012;-71
2022/06/23 04:31:28;;;;;;;;;;;;;;;22.52;79.39;96642.89;584284;243;67116;-72
2022/06/23 04:33:57;;;;;;;;;;;;;;;22.52;79.52;96645.57;584359;243;64244;-72
2022/06/23 04:36:27;;;;;;;;;;;;;;;22.52;79.61;96647.45;584338;243;64971;-72
2022/06/23 04:39:05;;;;;;;;;;;;;;;22.52;79.65;96650.92;584147;243;67107;-72
2022/06/23 04:41:46;;;;;;;;;;;;;;;22.52;79.66;96653.60;578177;245;67266;-73
2022/06/23 04:44:18;;;;;;;;;;;;;;;22.52;79.65;96661.64;584335;243;64881;-73
2022/06/23 04:46:47;;;;;;;;;;;;;;;22.51;79.69;96656.58;584291;243;67011;-73
2022/06/23 04:49:22;;;;;;;;;;;;;;;22.51;79.73;96665.41;584319;243;66737;-73
2022/06/23 04:51:51;;;;;;;;;;;;;;;22.51;79.73;96659.27;584314;243;64952;-72
2022/06/23 04:54:23;;;;;;;;;;;;;;;22.51;79.72;96653.91;584249;242;67663;-72
2022/06/23 04:56:55;;;;;;;;;;;;;;;22.51;79.76;96648.55;584260;243;70987;-72
2022/06/23 04:59:33;;;;;;;;;;;;;;;22.51;79.80;96652.02;584185;243;62825;-72
2022/06/23 05:02:02;;;;;;;;;;;;;;;22.50;79.77;96655.77;584213;243;66770;-72
2022/06/23 05:04:32;;;;;;;;;;;;;;;22.52;79.64;96655.48;583541;243;64644;-72
2022/06/23 05:07:01;;;;;;;;;;;;;;;22.51;79.65;96660.05;584245;243;62871;-72
2022/06/23 05:09:32;;;;;;;;;;;;;;;22.51;79.69;96668.09;584264;243;65203;-72
2022/06/23 05:12:04;;;;;;;;;;;;;;;22.51;79.72;96669.97;584214;243;64808;-72
2022/06/23 05:14:45;;;;;;;;;;;;;;;22.51;79.71;96667.30;584293;243;64939;-72
2022/06/23 05:17:15;;;;;;;;;;;;;;;22.51;79.69;96667.30;584184;243;64886;-72
2022/06/23 05:19:43;;;;;;;;;;;;;;;22.51;79.72;96667.30;584318;243;64713;-72
2022/06/23 05:22:21;;;;;;;;;;;;;;;22.51;79.68;96661.94;584288;243;64899;-71
2022/06/23 05:24:49;;;;;;;;;;;;;;;22.51;79.64;96656.58;584149;239;67473;-72
2022/06/23 05:27:21;;;;;;;;;;;;;;;22.51;79.65;96653.91;584249;243;67142;-71
2022/06/23 05:29:50;;;;;;;;;;;;;;;22.51;79.67;96645.88;584216;243;63658;-72
2022/06/23 05:32:19;;;;;;;;;;;;;;;22.50;79.69;96650.41;582396;243;67169;-72
2022/06/23 05:34:48;;;;;;;;;;;;;;;22.51;79.68;96651.23;583982;243;64785;-72
2022/06/23 05:37:20;;;;;;;;;;;;;;;22.51;79.66;96654.70;583517;243;62767;-72
2022/06/23 05:39:49;;;;;;;;;;;;;;;22.51;79.72;96651.23;584138;243;67166;-72
2022/06/23 05:42:18;;;;;;;;;;;;;;;22.50;79.73;96653.09;584152;243;66887;-72
2022/06/23 05:44:50;;;;;;;;;;;;;;;22.50;79.74;96661.13;584280;243;64994;-72
2022/06/23 05:47:19;;;;;;;;;;;;;;;22.50;79.69;96660.33;584296;243;67108;-72
2022/06/23 05:49:54;;;;;;;;;;;;;;;22.50;79.66;96661.13;584182;243;64827;-69
2022/06/23 05:52:23;;;;;;;;;;;;;;;22.50;79.69;96674.51;583672;243;64971;-71
2022/06/23 05:55:01;;;;;;;;;;;;;;;22.52;79.58;96684.95;583980;242;65126;-70
2022/06/23 05:57:30;;;;;;;;;;;;;;;22.52;81.96;96682.27;584217;243;65134;-69
2022/06/23 06:00:14;;;;;;;;;;;;;;;22.49;80.29;96686.31;584050;241;65174;-69
2022/06/23 06:02:46;;;;;;;;;;;;;;;22.51;80.11;96715.50;584048;243;67096;-69
2022/06/23 06:05:19;;;;;;;;;;;;;;;22.50;79.87;96733.42;583888;239;67038;-69
2022/06/23 06:07:46;;;;;;;;;;;;;;;22.50;79.79;96754.05;587954;240;62736;-70
2022/06/23 06:10:15;;;;;;;;;;;;;;;22.52;79.61;96770.64;585633;240;64817;-77
2022/06/23 06:12:44;;;;;;;;;;;;;;;22.51;79.58;96790.48;584025;240;64956;-71
2022/06/23 06:15:19;;;;;;;;;;;;;;;22.51;78.41;96814.58;584184;243;64886;-70
2022/06/23 06:17:49;;;;;;;;;;;;;;;22.52;78.52;96826.88;584076;243;64551;-70
2022/06/23 06:20:18;;;;;;;;;;;;;;;22.52;79.19;96849.09;584106;243;66945;-69
2022/06/23 06:22:56;;;;;;;;;;;;;;;22.54;79.35;96864.89;584040;241;64957;-69
2022/06/23 06:25:28;;;;;;;;;;;;;;;22.54;79.65;96888.99;584080;243;65079;-73
2022/06/23 06:27:57;;;;;;;;;;;;;;;22.53;79.74;96911.48;584133;243;64884;-73
2022/06/23 06:30:26;;;;;;;;;;;;;;;22.55;81.21;96930.75;584196;243;62717;-73
2022/06/23 06:32:54;;;;;;;;;;;;;;;22.54;80.96;96946.02;584016;242;65011;-70
2022/06/23 06:35:32;;;;;;;;;;;;;;;22.53;80.96;96959.69;584141;243;66926;-69
2022/06/23 06:38:03;;;;;;;;;;;;;;;22.53;80.88;96970.39;584198;243;65109;-70
2022/06/23 06:40:32;;;;;;;;;;;;;;;22.53;81.00;96981.11;584192;243;67294;-69
2022/06/23 06:43:01;;;;;;;;;;;;;;;22.53;81.15;96979.23;584112;243;66968;-75
2022/06/23 06:45:30;;;;;;;;;;;;;;;22.55;78.82;96990.46;584205;243;65092;-69
2022/06/23 06:47:58;;;;;;;;;;;;;;;22.55;77.23;96979.75;584217;243;64509;-73
2022/06/23 06:50:28;;;;;;;;;;;;;;;22.55;78.44;96965.56;584139;243;66940;-75
2022/06/23 06:52:58;;;;;;;;;;;;;;;22.55;77.04;96946.82;584565;241;63654;-75
2022/06/23 06:55:36;;;;;;;;;;;;;;;22.56;77.66;96930.48;586962;241;67260;-74
2022/06/23 06:58:08;;;;;;;;;;;;;;;22.55;79.09;96898.61;586858;241;67136;-72
2022/06/23 07:00:37;;;;;;;;;;;;;;;22.54;79.29;96854.17;586989;241;65474;-72
2022/06/23 07:03:06;;;;;;;;;;;;;;;22.54;79.43;96844.26;586852;241;66986;-71
2022/06/23 07:05:42;;;;;;;;;;;;;;;22.54;79.51;96827.39;586830;241;64799;-72
2022/06/23 07:08:23;;;;;;;;;;;;;;;22.54;78.46;96798.73;586931;241;65141;-72
2022/06/23 07:10:53;;;;;;;;;;;;;;;22.54;79.88;96769.27;586865;241;64802;-71
2022/06/23 07:13:31;;;;;;;;;;;;;;;22.54;80.06;96752.41;586804;241;67384;-71
2022/06/23 07:16:00;;;;;;;;;;;;;;;22.53;80.06;96724.81;586882;241;64962;-73
2022/06/23 07:18:29;;;;;;;;;;;;;;;22.54;80.13;96714.92;586732;241;67102;-75
2022/06/23 07:20:58;;;;;;;;;;;;;;;22.55;79.93;96713.82;586552;241;66896;-68
2022/06/23 07:23:30;;;;;;;;;;;;;;;22.55;77.93;96711.14;586940;241;65187;-69
2022/06/23 07:25:59;;;;;;;;;;;;;;;22.56;79.07;96724.26;586819;241;67272;-69
2022/06/23 07:28:31;;;;;;;;;;;;;;;22.56;78.92;96731.47;586885;241;66931;-70
2022/06/23 07:31:00;;;;;;;;;;;;;;;22.56;78.94;96729.62;586375;241;62773;-70
2022/06/23 07:33:31;;;;;;;;;;;;;;;22.56;78.84;96734.97;586820;241;66859;-68
2022/06/23 07:36:04;;;;;;;;;;;;;;;22.56;78.93;96740.33;586789;241;66952;-71
2022/06/23 07:38:49;;;;;;;;;;;;;;;22.57;78.93;96733.09;586738;241;65127;-71
2022/06/23 07:41:36;;;;;;;;;;;;;;;22.55;76.34;96728.00;586890;241;65113;-71
2022/06/23 07:44:05;;;;;;;;;;;;;;;22.54;75.70;96714.92;586861;241;66952;-69
2022/06/23 07:46:34;;;;;;;;;;;;;;;22.57;78.39;96725.05;586851;241;65143;-69
2022/06/23 07:49:02;;;;;;;;;;;;;;;22.56;77.67;96723.44;586941;241;68206;-71
2022/06/23 07:51:29;;;;;;;;;;;;;;;22.56;77.77;96691.30;586879;241;66889;-71
2022/06/23 07:53:57;;;;;;;;;;;;;;;22.56;78.15;96685.95;586848;241;65201;-71
2022/06/23 07:56:26;;;;;;;;;;;;;;;22.58;78.13;96727.42;586988;241;66809;-71
2022/06/23 07:58:55;;;;;;;;;;;;;;;22.59;78.23;96760.39;586925;241;64295;-70
2022/06/23 08:01:33;;;;;;;;;;;;;;;22.59;78.52;96744.31;586870;241;64851;-71
2022/06/23 08:04:17;;;;;;;;;;;;;;;22.59;78.59;96763.06;586917;241;64586;-70
2022/06/23 08:06:45;;;;;;;;;;;;;;;22.59;78.72;96792.52;586896;241;66426;-72
2022/06/23 08:09:32;;;;;;;;;;;;;;;22.60;78.93;96788.75;586912;241;65212;-74
2022/06/23 08:14:48;;;;;;;;;;;;;;;22.59;79.01;96787.17;586863;241;66556;-69
2022/06/23 08:17:17;;;;;;;;;;;;;;;22.58;79.19;96775.63;583007;241;63163;-72
2022/06/23 08:19:46;;;;;;;;;;;;;;;22.59;79.33;96776.45;586980;241;66941;-79
2022/06/23 08:22:19;;;;;;;;;;;;;;;22.57;79.48;96757.19;586866;241;67506;-70
2022/06/23 08:24:48;;;;;;;;;;;;;;;22.56;79.66;96731.47;586845;241;64950;-70
2022/06/23 08:27:18;;;;;;;;;;;;;;;22.56;79.78;96729.62;586808;241;65186;-69
2022/06/23 08:29:47;;;;;;;;;;;;;;;22.57;79.67;96706.30;586851;241;65107;-69
2022/06/23 08:32:15;;;;;;;;;;;;;;;22.57;79.85;96687.56;586928;241;65225;-69
2022/06/23 08:34:44;;;;;;;;;;;;;;;22.58;79.83;96695.29;586848;241;67108;-69
2022/06/23 08:37:16;;;;;;;;;;;;;;;22.58;79.72;96694.50;586450;241;67862;-69
2022/06/23 08:39:45;;;;;;;;;;;;;;;22.57;79.57;96685.67;586872;241;64818;-69
2022/06/23 08:42:17;;;;;;;;;;;;;;;22.59;79.65;96682.72;586773;241;64884;-70
2022/06/23 08:44:46;;;;;;;;;;;;;;;22.59;79.84;96680.04;586452;241;66964;-71
2022/06/23 08:47:15;;;;;;;;;;;;;;;22.58;77.89;96679.22;586217;241;64964;-71
2022/06/23 08:49:53;;;;;;;;;;;;;;;22.59;79.25;96685.39;586817;241;66756;-70
2022/06/23 08:52:31;;;;;;;;;;;;;;;22.59;78.92;96712.17;586683;241;67157;-70
2022/06/23 08:55:06;;;;;;;;;;;;;;;22.58;78.53;96729.31;586815;241;65200;-70
2022/06/23 08:57:41;;;;;;;;;;;;;;;22.59;78.37;96722.89;586810;241;67319;-70
2022/06/23 09:00:10;;;;;;;;;;;;;;;22.59;78.32;96734.39;586794;241;66750;-70
2022/06/23 09:02:45;;;;;;;;;;;;;;;22.59;78.28;96720.21;587996;238;64944;-69
2022/06/23 09:05:14;;;;;;;;;;;;;;;22.59;78.31;96721.00;590260;238;67145;-71
2022/06/23 09:07:56;;;;;;;;;;;;;;;22.58;78.21;96711.36;595198;238;64804;-69
2022/06/23 09:10:31;;;;;;;;;;;;;;;22.60;78.14;96716.44;595203;238;62803;-69
2022/06/23 09:13:09;;;;;;;;;;;;;;;22.59;78.10;96704.94;595126;238;66782;-71
2022/06/23 09:15:56;;;;;;;;;;;;;;;22.58;78.09;96715.92;595183;238;65777;-70
2022/06/23 09:18:31;;;;;;;;;;;;;;;22.59;78.08;96706.82;591389;238;65165;-70
2022/06/23 09:21:01;;;;;;;;;;;;;;;22.59;78.10;96696.11;584012;241;66531;-69
2022/06/23 09:23:42;;;;;;;;;;;;;;;22.59;78.11;96698.79;583214;241;66876;-70
2022/06/23 09:26:19;;;;;;;;;;;;;;;22.59;78.12;96690.75;587059;241;63200;-70
2022/06/23 09:28:54;;;;;;;;;;;;;;;22.59;78.15;96680.04;587021;241;64628;-70
2022/06/23 09:31:39;;;;;;;;;;;;;;;22.59;78.16;96674.69;586910;241;66817;-70
2022/06/23 09:34:12;;;;;;;;;;;;;;;22.58;78.18;96679.22;587042;241;65201;-71
2022/06/23 09:36:48;;;;;;;;;;;;;;;22.59;78.17;96669.33;587062;241;64580;-71
2022/06/23 09:39:29;;;;;;;;;;;;;;;22.58;78.21;96673.07;587015;241;64391;-72
2022/06/23 09:42:01;;;;;;;;;;;;;;;22.59;78.26;96661.30;587012;241;65106;-71
2022/06/23 09:44:33;;;;;;;;;;;;;;;22.59;78.33;96672.00;587064;241;64506;-73
2022/06/23 09:47:04;;;;;;;;;;;;;;;22.58;77.73;96670.39;586950;241;66916;-70
2022/06/23 09:49:37;;;;;;;;;;;;;;;22.59;78.40;96664.77;587011;241;64916;-73
2022/06/23 09:52:12;;;;;;;;;;;;;;;22.59;78.89;96669.33;587034;241;66812;-73
2022/06/23 09:54:50;;;;;;;;;;;;;;;22.60;78.74;96670.91;588062;241;64411;-70
2022/06/23 09:57:22;;;;;;;;;;;;;;;22.60;78.88;96674.38;588326;241;65191;-71
2022/06/23 09:59:53;;;;;;;;;;;;;;;22.61;79.10;96672.48;588270;241;66918;-71
2022/06/23 10:02:22;;;;;;;;;;;;;;;22.62;79.35;96679.45;588210;241;64652;-72
2022/06/23 10:05:00;;;;;;;;;;;;;;;22.60;79.52;96674.38;588201;241;64978;-71
2022/06/23 10:07:35;;;;;;;;;;;;;;;22.61;79.68;96677.84;588244;241;64384;-73
2022/06/23 10:10:04;;;;;;;;;;;;;;;22.61;79.84;96673.28;588163;241;65438;-72
2022/06/23 10:12:48;;;;;;;;;;;;;;;22.61;79.81;96672.48;588220;241;65192;-71
2022/06/23 10:15:23;;;;;;;;;;;;;;;22.61;79.79;96680.52;588247;241;67526;-71
2022/06/23 10:17:53;;;;;;;;;;;;;;;22.60;79.52;96686.98;588156;241;65506;-71
2022/06/23 10:20:32;;;;;;;;;;;;;;;22.60;79.47;96689.66;588281;241;66254;-71
2022/06/23 10:23:05;;;;;;;;;;;;;;;22.60;79.46;96682.41;588150;241;64674;-74
2022/06/23 10:25:37;;;;;;;;;;;;;;;22.60;79.55;96698.48;588091;241;64445;-72
2022/06/23 10:28:12;;;;;;;;;;;;;;;22.62;79.54;96708.92;588274;241;64931;-72
2022/06/23 10:30:50;;;;;;;;;;;;;;;22.60;79.37;96703.84;588271;241;66829;-72
2022/06/23 10:33:36;;;;;;;;;;;;;;;22.61;79.42;96699.27;588276;241;69412;-72
2022/06/23 10:36:22;;;;;;;;;;;;;;;22.60;79.52;96703.84;588317;241;65183;-71
2022/06/23 10:38:57;;;;;;;;;;;;;;;22.61;79.52;96715.34;588208;238;64579;-72
2022/06/23 10:41:41;;;;;;;;;;;;;;;22.59;79.49;96712.97;584905;238;66795;-69
2022/06/23 10:44:13;;;;;;;;;;;;;;;22.60;79.50;96711.08;584086;241;65198;-71
2022/06/23 10:46:51;;;;;;;;;;;;;;;22.60;79.49;96724.47;581848;244;66642;-69
2022/06/23 10:49:28;;;;;;;;;;;;;;;22.60;79.49;96729.83;581833;244;66699;-72
2022/06/23 10:52:12;;;;;;;;;;;;;;;22.61;79.51;96731.41;581864;244;65497;-72
2022/06/23 10:54:57;;;;;;;;;;;;;;;22.60;79.53;96732.51;578425;244;64523;-70
2022/06/23 10:57:26;;;;;;;;;;;;;;;22.60;79.52;96733.30;578035;245;66584;-71
2022/06/23 10:59:55;;;;;;;;;;;;;;;22.60;79.55;96732.51;577796;242;62844;-71
2022/06/23 11:02:40;;;;;;;;;;;;;;;22.60;79.56;96738.66;580105;242;64762;-71
2022/06/23 11:05:27;;;;;;;;;;;;;;;22.60;79.58;96745.90;577820;245;66989;-71
2022/06/23 11:08:13;;;;;;;;;;;;;;;22.60;79.53;96759.29;577892;245;65107;-72
2022/06/23 11:10:45;;;;;;;;;;;;;;;22.60;79.53;96759.29;577939;245;64671;-70
2022/06/23 11:13:26;;;;;;;;;;;;;;;22.61;79.53;96774.27;577815;245;64710;-70
2022/06/23 11:15:56;;;;;;;;;;;;;;;22.60;79.54;96786.08;577956;245;65198;-70
2022/06/23 11:18:25;;;;;;;;;;;;;;;22.59;79.56;96785.28;577855;245;66808;-71
2022/06/23 11:21:06;;;;;;;;;;;;;;;22.60;79.62;96767.33;577466;242;66705;-71
2022/06/23 11:23:41;;;;;;;;;;;;;;;22.60;79.65;96781.51;577694;245;62889;-71
2022/06/23 11:26:10;;;;;;;;;;;;;;;22.60;79.63;96792.22;577984;245;66676;-70
2022/06/23 11:28:39;;;;;;;;;;;;;;;22.60;79.63;96788.75;577916;242;67683;-71
2022/06/23 11:31:11;;;;;;;;;;;;;;;22.60;79.56;96802.14;577917;245;65147;-71
2022/06/23 11:33:59;;;;;;;;;;;;;;;22.60;79.47;96800.26;577894;242;67066;-71
2022/06/23 11:36:46;;;;;;;;;;;;;;;22.60;79.50;96800.26;577795;242;64563;-70
2022/06/23 11:39:20;;;;;;;;;;;;;;;22.60;79.47;96794.11;577956;245;65137;-70
2022/06/23 11:41:49;;;;;;;;;;;;;;;22.60;79.46;96799.47;577920;242;67753;-72
2022/06/23 11:44:30;;;;;;;;;;;;;;;22.60;79.46;96796.78;578055;242;48930;-69
2022/06/23 11:47:08;;;;;;;;;;;;;;;22.59;79.43;96798.67;577974;242;65110;-71
2022/06/23 11:49:40;;;;;;;;;;;;;;;22.60;79.46;96804.82;577857;245;66852;-68
2022/06/23 11:52:15;;;;;;;;;;;;;;;22.59;79.47;96806.70;577869;242;66790;-69
2022/06/23 11:54:48;;;;;;;;;;;;;;;22.59;79.47;96801.34;580341;242;65059;-70
2022/06/23 11:57:21;;;;;;;;;;;;;;;22.60;79.44;96794.11;580348;244;64656;-69
2022/06/23 11:59:53;;;;;;;;;;;;;;;22.60;79.45;96794.11;580688;244;64499;-69
2022/06/23 12:02:21;;;;;;;;;;;;;;;22.60;79.45;96794.11;580659;244;62791;-70
2022/06/23 12:04:50;;;;;;;;;;;;;;;22.59;79.46;96790.64;580627;244;64468;-69
2022/06/23 12:07:34;;;;;;;;;;;;;;;22.57;76.22;96794.69;580427;244;66732;-71
2022/06/23 12:10:15;;;;;;;;;;;;;;;22.62;77.66;96786.59;580503;241;62837;-70
2022/06/23 12:12:44;;;;;;;;;;;;;;;22.62;78.61;96783.91;580573;244;66795;-72
2022/06/23 12:15:13;;;;;;;;;;;;;;;22.62;79.05;96789.27;580704;244;66142;-71
2022/06/23 12:17:43;;;;;;;;;;;;;;;22.61;79.28;96790.34;580658;244;62805;-71
2022/06/23 12:20:12;;;;;;;;;;;;;;;22.61;79.46;96788.45;580675;244;66665;-72
2022/06/23 12:22:47;;;;;;;;;;;;;;;22.61;79.57;96793.80;580478;244;64338;-70
2022/06/23 12:25:22;;;;;;;;;;;;;;;22.62;79.69;96794.63;580478;244;63245;-71
2022/06/23 12:27:54;;;;;;;;;;;;;;;22.61;79.78;96801.84;580579;244;67533;-72
2022/06/23 12:30:21;;;;;;;;;;;;;;;22.66;77.20;96802.88;580442;244;66350;-71
2022/06/23 12:33:00;;;;;;;;;;;;;;;22.64;77.12;96805.04;580632;244;64925;-71
2022/06/23 12:35:27;;;;;;;;;;;;;;;;;;580708;244;66536;-70
2022/06/23 12:38:11;;;;;;;;;;;;;;;22.62;78.34;96802.66;580690;244;64678;-69
2022/06/23 12:40:41;;;;;;;;;;;;;;;22.63;78.72;96800.77;580674;242;62757;-72
2022/06/23 12:43:22;;;;;;;;;;;;;;;22.63;79.22;96804.24;580591;244;64373;-71
2022/06/23 12:45:51;;;;;;;;;;;;;;;22.63;79.70;96808.81;580491;244;66636;-70
2022/06/23 12:48:32;;;;;;;;;;;;;;;22.62;80.03;96799.98;580694;244;64918;-70
2022/06/23 12:51:10;;;;;;;;;;;;;;;22.63;80.27;96798.89;580513;244;64961;-69
2022/06/23 12:53:39;;;;;;;;;;;;;;;22.62;80.41;96808.02;580376;244;65563;-69
2022/06/23 12:56:23;;;;;;;;;;;;;;;22.62;80.58;96810.70;580593;244;66168;-69
2022/06/23 12:58:53;;;;;;;;;;;;;;;22.62;80.71;96808.02;580648;244;66647;-70
2022/06/23 13:01:32;;;;;;;;;;;;;;;22.61;80.81;96801.84;580614;244;66925;-74
2022/06/23 13:04:07;;;;;;;;;;;;;;;22.62;80.87;96794.63;585870;241;65139;-69
2022/06/23 13:06:39;;;;;;;;;;;;;;;22.61;80.93;96795.69;586928;241;64562;-70
2022/06/23 13:09:11;;;;;;;;;;;;;;;22.61;80.96;96793.80;586970;241;64632;-69
2022/06/23 13:11:40;;;;;;;;;;;;;;;22.61;80.92;96788.45;586842;241;62499;-70
2022/06/23 13:14:10;;;;;;;;;;;;;;;22.61;80.91;96788.45;586851;241;66741;-70
2022/06/23 13:16:39;;;;;;;;;;;;;;;22.62;80.87;96789.27;586830;241;66625;-70
2022/06/23 13:19:11;;;;;;;;;;;;;;;22.60;80.85;96776.16;586936;241;62817;-69
2022/06/23 13:21:40;;;;;;;;;;;;;;;22.62;80.85;96770.52;586815;241;66834;-69
2022/06/23 13:24:10;;;;;;;;;;;;;;;22.62;80.85;96783.91;586985;241;64610;-69
2022/06/23 13:26:39;;;;;;;;;;;;;;;22.62;80.87;96773.20;586970;241;64878;-69